createdAt,value
2022-12-25T00:00:56.033Z,4.73
2022-12-25T00:03:22.893Z,5.43
2022-12-25T00:05:49.635Z,4.30
2022-12-25T00:08:16.291Z,5.27
2022-12-25T00:10:45.225Z,4.97
2022-12-25T00:13:12.453Z,4.73
2022-12-25T00:15:42.164Z,4.13
2022-12-25T00:18:08.910Z,3.40
2022-12-25T00:20:35.833Z,4.33
2022-12-25T00:23:02.539Z,3.60
2022-12-25T00:25:29.189Z,3.47
2022-12-25T00:27:55.851Z,3.90
2022-12-25T00:30:22.491Z,3.63
2022-12-25T00:32:49.214Z,5.23
2022-12-25T00:35:15.886Z,4.33
2022-12-25T00:37:42.539Z,4.17
2022-12-25T00:40:09.822Z,5.30
2022-12-25T00:42:36.473Z,5.10
2022-12-25T00:45:04.670Z,5.63
2022-12-25T00:47:31.551Z,6.00
2022-12-25T00:49:58.186Z,4.97
2022-12-25T00:52:24.846Z,5.50
2022-12-25T00:54:51.487Z,5.47
2022-12-25T00:57:18.132Z,5.60
2022-12-25T00:59:44.800Z,4.57
2022-12-25T01:02:29.353Z,4.07
2022-12-25T01:04:57.297Z,3.90
2022-12-25T01:07:26.182Z,3.50
2022-12-25T01:10:11.853Z,4.13
2022-12-25T01:12:41.516Z,4.10
2022-12-25T01:15:10.036Z,4.27
2022-12-25T01:17:36.822Z,4.50
2022-12-25T01:20:03.755Z,4.03
2022-12-25T01:22:30.390Z,4.80
2022-12-25T01:24:57.069Z,4.20
2022-12-25T01:27:24.179Z,4.27
2022-12-25T01:29:50.855Z,4.40
2022-12-25T01:32:17.893Z,4.53
2022-12-25T01:34:49.270Z,4.73
2022-12-25T01:37:18.758Z,3.93
2022-12-25T01:39:45.398Z,4.00
2022-12-25T01:42:20.334Z,3.90
2022-12-25T01:44:47.009Z,3.53
2022-12-25T01:47:15.253Z,3.30
2022-12-25T01:49:44.991Z,3.90
2022-12-25T01:52:18.777Z,3.40
2022-12-25T01:54:57.126Z,3.23
2022-12-25T01:57:28.533Z,3.60
2022-12-25T01:59:57.238Z,2.87
2022-12-25T02:02:24.460Z,3.50
2022-12-25T02:04:58.293Z,3.03
2022-12-25T02:07:27.411Z,2.73
2022-12-25T02:09:54.547Z,2.60
2022-12-25T02:12:22.815Z,2.50
2022-12-25T02:14:51.407Z,2.60
2022-12-25T02:17:41.136Z,2.60
2022-12-25T02:20:51.329Z,2.43
2022-12-25T02:23:26.943Z,2.97
2022-12-25T02:26:07.993Z,2.70
2022-12-25T02:28:55.389Z,3.27
2022-12-25T02:31:40.128Z,3.47
2022-12-25T02:34:22.949Z,3.07
2022-12-25T02:37:06.384Z,2.73
2022-12-25T02:39:57.860Z,3.20
2022-12-25T02:42:47.749Z,3.27
2022-12-25T02:45:37.635Z,3.20
2022-12-25T02:48:25.159Z,3.50
2022-12-25T02:51:12.137Z,3.10
2022-12-25T02:53:58.958Z,3.30
2022-12-25T02:56:46.629Z,3.23
2022-12-25T02:59:34.745Z,4.40
2022-12-25T03:02:21.681Z,3.73
2022-12-25T03:05:09.980Z,3.60
2022-12-25T03:07:40.671Z,3.43
2022-12-25T03:10:29.385Z,3.00
2022-12-25T03:13:14.765Z,3.33
2022-12-25T03:16:00.528Z,2.67
2022-12-25T03:18:30.517Z,3.67
2022-12-25T03:21:16.066Z,3.40
2022-12-25T03:24:05.735Z,4.20
2022-12-25T03:26:51.560Z,4.57
2022-12-25T03:29:37.172Z,4.33
2022-12-25T03:32:48.996Z,4.70
2022-12-25T03:35:45.614Z,4.00
2022-12-25T03:38:55.608Z,5.50
2022-12-25T03:42:05.228Z,4.90
2022-12-25T03:44:53.798Z,4.53
2022-12-25T03:47:51.643Z,4.40
2022-12-25T03:50:40.643Z,2.47
2022-12-25T03:53:32.627Z,3.00
2022-12-25T03:56:18.432Z,2.57
2022-12-25T03:59:21.297Z,2.67
2022-12-25T04:02:10.317Z,2.87
2022-12-25T04:04:56.570Z,1.80
2022-12-25T04:07:41.950Z,2.07
2022-12-25T04:10:27.912Z,2.30
2022-12-25T04:13:12.917Z,2.20
2022-12-25T04:15:58.474Z,1.80
2022-12-25T04:18:43.769Z,2.30
2022-12-25T04:21:28.978Z,2.00
2022-12-25T04:24:14.523Z,1.80
2022-12-25T04:26:59.997Z,2.37
2022-12-25T04:29:45.640Z,2.10
2022-12-25T04:32:31.103Z,2.07
2022-12-25T04:35:24.059Z,2.57
2022-12-25T04:37:50.712Z,2.63
2022-12-25T04:40:18.961Z,2.47
2022-12-25T04:42:45.629Z,1.90
2022-12-25T04:45:12.488Z,2.20
2022-12-25T04:47:39.202Z,2.00
2022-12-25T04:50:06.755Z,2.17
2022-12-25T04:52:38.593Z,1.90
2022-12-25T04:55:06.947Z,1.80
2022-12-25T04:57:33.720Z,2.23
2022-12-25T05:00:00.613Z,4.23
2022-12-25T05:02:27.485Z,2.80
2022-12-25T05:04:54.497Z,2.57
2022-12-25T05:07:21.196Z,2.23
2022-12-25T05:09:47.850Z,2.10
2022-12-25T05:12:14.714Z,3.03
2022-12-25T05:14:41.432Z,2.57
2022-12-25T05:17:08.295Z,2.30
2022-12-25T05:19:35.230Z,2.30
2022-12-25T05:22:01.980Z,2.50
2022-12-25T05:24:28.846Z,2.43
2022-12-25T05:26:55.515Z,2.10
2022-12-25T05:29:22.278Z,1.80
2022-12-25T05:31:49.030Z,2.70
2022-12-25T05:34:15.788Z,2.13
2022-12-25T05:36:42.431Z,2.40
2022-12-25T05:39:09.169Z,1.90
2022-12-25T05:41:35.837Z,2.03
2022-12-25T05:44:02.583Z,2.00
2022-12-25T05:46:29.414Z,1.93
2022-12-25T05:48:56.105Z,2.30
2022-12-25T05:51:22.814Z,1.90
2022-12-25T05:53:49.456Z,1.97
2022-12-25T05:56:16.120Z,1.87
2022-12-25T05:58:43.053Z,2.13
2022-12-25T06:01:15.828Z,2.23
2022-12-25T06:03:42.588Z,2.50
2022-12-25T06:06:09.762Z,1.93
2022-12-25T06:08:36.816Z,2.17
2022-12-25T06:11:07.943Z,1.90
2022-12-25T06:13:36.294Z,2.40
2022-12-25T06:16:11.650Z,2.20
2022-12-25T06:18:41.692Z,1.93
2022-12-25T06:21:09.799Z,2.13
2022-12-25T06:23:38.070Z,1.83
2022-12-25T06:26:10.598Z,1.87
2022-12-25T06:28:37.617Z,1.57
2022-12-25T06:31:26.156Z,2.00
2022-12-25T06:33:52.854Z,2.07
2022-12-25T06:36:25.027Z,1.80
2022-12-25T06:38:52.712Z,1.83
2022-12-25T06:41:29.823Z,1.60
2022-12-25T06:43:59.823Z,1.60
2022-12-25T06:46:28.713Z,1.70
2022-12-25T06:48:56.721Z,1.70
2022-12-25T06:51:26.606Z,2.17
2022-12-25T06:53:54.120Z,1.63
2022-12-25T06:56:25.945Z,1.70
2022-12-25T06:58:59.756Z,1.90
2022-12-25T07:01:30.224Z,1.90
2022-12-25T07:04:00.104Z,2.10
2022-12-25T07:06:26.801Z,2.03
2022-12-25T07:08:53.592Z,1.50
2022-12-25T07:11:20.547Z,2.20
2022-12-25T07:13:47.581Z,3.27
2022-12-25T07:16:14.637Z,2.10
2022-12-25T07:18:42.224Z,2.10
2022-12-25T07:21:17.724Z,2.20
2022-12-25T07:23:45.804Z,2.03
2022-12-25T07:26:13.145Z,2.27
2022-12-25T07:28:40.158Z,2.83
2022-12-25T07:31:10.599Z,2.93
2022-12-25T07:33:37.292Z,3.73
2022-12-25T07:36:05.404Z,2.63
2022-12-25T07:38:32.695Z,3.33
2022-12-25T07:40:59.404Z,3.63
2022-12-25T07:43:26.320Z,2.53
2022-12-25T07:45:57.831Z,2.87
2022-12-25T07:48:25.555Z,3.00
2022-12-25T07:50:59.973Z,3.60
2022-12-25T07:53:26.997Z,3.00
2022-12-25T07:56:14.514Z,2.97
2022-12-25T07:58:41.722Z,3.17
2022-12-25T08:01:18.181Z,2.60
2022-12-25T08:03:52.835Z,2.03
2022-12-25T08:06:20.847Z,2.13
2022-12-25T08:08:47.688Z,2.07
2022-12-25T08:11:14.406Z,2.27
2022-12-25T08:13:41.121Z,2.83
2022-12-25T08:16:09.853Z,2.87
2022-12-25T08:18:38.903Z,3.73
2022-12-25T08:21:08.498Z,3.50
2022-12-25T08:23:37.565Z,3.40
2022-12-25T08:26:06.719Z,3.23
2022-12-25T08:28:35.015Z,3.60
2022-12-25T08:31:10.839Z,2.93
2022-12-25T08:33:38.318Z,3.20
2022-12-25T08:36:09.453Z,3.40
2022-12-25T08:38:36.668Z,3.90
2022-12-25T08:41:03.622Z,3.03
2022-12-25T08:43:30.594Z,3.43
2022-12-25T08:45:57.363Z,2.60
2022-12-25T08:48:24.161Z,2.50
2022-12-25T08:50:52.649Z,2.63
2022-12-25T08:53:19.623Z,2.60
2022-12-25T08:55:46.373Z,6.73
2022-12-25T08:58:14.527Z,16.73
2022-12-25T09:00:41.303Z,13.70
2022-12-25T09:03:08.294Z,2.83
2022-12-25T09:05:38.184Z,3.37
2022-12-25T09:08:04.974Z,5.80
2022-12-25T09:10:34.741Z,3.30
2022-12-25T09:13:01.439Z,2.07
2022-12-25T09:15:28.227Z,2.07
2022-12-25T09:17:54.906Z,2.00
2022-12-25T09:20:21.748Z,2.40
2022-12-25T09:22:48.488Z,2.33
2022-12-25T09:25:15.245Z,3.30
2022-12-25T09:27:43.579Z,3.70
2022-12-25T09:30:11.015Z,3.40
2022-12-25T09:32:40.144Z,2.97
2022-12-25T09:35:08.099Z,2.43
2022-12-25T09:37:34.751Z,2.30
2022-12-25T09:40:01.568Z,2.40
2022-12-25T09:42:32.282Z,2.50
2022-12-25T09:45:36.229Z,5.10
2022-12-25T09:48:03.656Z,2.70
2022-12-25T09:50:43.867Z,2.83
2022-12-25T09:53:35.245Z,1.90
2022-12-25T09:56:12.839Z,1.93
2022-12-25T09:58:39.902Z,2.47
2022-12-25T10:01:12.529Z,2.10
2022-12-25T10:03:57.638Z,2.00
2022-12-25T10:06:27.349Z,3.03
2022-12-25T10:09:18.175Z,3.80
2022-12-25T10:11:55.674Z,4.10
2022-12-25T10:14:57.948Z,4.10
2022-12-25T10:17:48.377Z,4.20
2022-12-25T10:20:35.165Z,5.33
2022-12-25T10:23:09.431Z,4.40
2022-12-25T10:25:38.616Z,5.10
2022-12-25T10:28:14.256Z,5.37
2022-12-25T10:30:44.255Z,6.10
2022-12-25T10:33:17.041Z,5.73
2022-12-25T10:35:44.927Z,8.50
2022-12-25T10:38:15.419Z,19.23
2022-12-25T10:41:08.021Z,9.63
2022-12-25T10:43:42.241Z,5.57
2022-12-25T10:46:14.479Z,7.47
2022-12-25T10:48:46.148Z,6.33
2022-12-25T10:51:13.144Z,5.90
2022-12-25T10:53:42.816Z,6.93
2022-12-25T10:56:18.216Z,9.80
2022-12-25T10:58:45.441Z,7.50
2022-12-25T11:01:12.730Z,5.37
2022-12-25T11:03:41.891Z,6.07
2022-12-25T11:06:25.339Z,2.93
2022-12-25T11:08:56.631Z,2.20
2022-12-25T11:11:24.003Z,3.17
2022-12-25T11:13:59.786Z,3.27
2022-12-25T11:16:38.474Z,3.23
2022-12-25T11:19:22.954Z,2.97
2022-12-25T11:21:55.292Z,2.40
2022-12-25T11:24:25.493Z,2.20
2022-12-25T11:26:55.399Z,2.10
2022-12-25T11:29:42.002Z,2.00
2022-12-25T11:32:58.794Z,1.43
2022-12-25T11:35:31.411Z,1.60
2022-12-25T11:37:58.137Z,1.33
2022-12-25T11:40:35.380Z,2.00
2022-12-25T11:43:20.388Z,1.30
2022-12-25T11:45:52.777Z,0.90
2022-12-25T11:48:31.417Z,1.23
2022-12-25T11:51:01.478Z,1.10
2022-12-25T11:53:38.336Z,1.13
2022-12-25T11:56:11.059Z,1.70
2022-12-25T11:58:47.562Z,1.47
2022-12-25T12:01:32.190Z,1.30
2022-12-25T12:04:01.883Z,1.60
2022-12-25T12:06:59.991Z,1.27
2022-12-25T12:09:38.456Z,1.20
2022-12-25T12:12:36.270Z,1.37
2022-12-25T12:15:29.175Z,1.30
2022-12-25T12:18:10.278Z,1.57
2022-12-25T12:20:37.438Z,1.60
2022-12-25T12:23:15.186Z,1.50
2022-12-25T12:25:44.442Z,1.33
2022-12-25T12:28:21.667Z,1.60
2022-12-25T12:31:03.522Z,1.10
2022-12-25T12:33:50.567Z,1.10
2022-12-25T12:36:25.126Z,1.03
2022-12-25T12:39:01.561Z,1.50
2022-12-25T12:41:48.133Z,1.53
2022-12-25T12:44:17.141Z,1.57
2022-12-25T12:46:55.900Z,1.40
2022-12-25T12:49:28.462Z,1.20
2022-12-25T12:52:24.028Z,1.40
2022-12-25T12:54:59.010Z,1.30
2022-12-25T12:57:29.369Z,1.10
2022-12-25T12:59:59.018Z,1.20
2022-12-25T13:02:55.748Z,1.60
2022-12-25T13:05:41.969Z,1.20
2022-12-25T13:08:38.722Z,1.40
2022-12-25T13:11:21.059Z,1.47
2022-12-25T13:13:50.636Z,1.40
2022-12-25T13:16:44.431Z,1.20
2022-12-25T13:19:26.228Z,1.50
2022-12-25T13:21:53.045Z,1.30
2022-12-25T13:24:23.098Z,1.30
2022-12-25T13:26:50.289Z,1.50
2022-12-25T13:29:31.396Z,1.27
2022-12-25T13:31:59.625Z,1.53
2022-12-25T13:34:46.612Z,1.30
2022-12-25T13:37:15.652Z,1.50
2022-12-25T13:39:58.601Z,1.60
2022-12-25T13:42:31.701Z,1.83
2022-12-25T13:45:12.169Z,1.27
2022-12-25T13:47:42.987Z,1.57
2022-12-25T13:50:22.869Z,1.20
2022-12-25T13:52:50.076Z,1.80
2022-12-25T13:55:19.667Z,1.37
2022-12-25T13:57:52.140Z,1.63
2022-12-25T14:00:27.126Z,1.30
2022-12-25T14:02:54.741Z,1.50
2022-12-25T14:05:37.870Z,1.60
2022-12-25T14:08:18.879Z,2.20
2022-12-25T14:10:51.193Z,2.20
2022-12-25T14:13:21.069Z,2.83
2022-12-25T14:15:48.823Z,2.23
2022-12-25T14:18:17.781Z,2.30
2022-12-25T14:21:01.143Z,1.70
2022-12-25T14:23:42.603Z,1.57
2022-12-25T14:26:33.553Z,1.87
2022-12-25T14:29:10.176Z,1.80
2022-12-25T14:31:43.033Z,1.70
2022-12-25T14:34:22.341Z,1.60
2022-12-25T14:36:50.262Z,1.90
2022-12-25T14:39:37.705Z,2.00
2022-12-25T14:42:21.204Z,3.30
2022-12-25T14:45:24.671Z,1.80
2022-12-25T14:48:24.609Z,2.80
2022-12-25T14:51:15.603Z,2.80
2022-12-25T14:53:50.407Z,2.70
2022-12-25T14:56:20.255Z,2.40
2022-12-25T14:58:50.643Z,2.30
2022-12-25T15:01:39.798Z,2.93
2022-12-25T15:04:12.828Z,3.13
2022-12-25T15:07:00.660Z,3.57
2022-12-25T15:09:29.913Z,3.37
2022-12-25T15:11:56.922Z,3.23
2022-12-25T15:14:25.045Z,5.77
2022-12-25T15:16:56.076Z,3.63
2022-12-25T15:19:30.450Z,4.50
2022-12-25T15:22:02.235Z,3.30
2022-12-25T15:24:29.043Z,5.90
2022-12-25T15:26:55.692Z,4.57
2022-12-25T15:29:38.464Z,4.80
2022-12-25T15:32:20.193Z,10.53
2022-12-25T15:34:49.584Z,25.37
2022-12-25T15:37:17.684Z,23.77
2022-12-25T15:39:44.822Z,12.83
2022-12-25T15:42:17.169Z,10.60
2022-12-25T15:44:45.349Z,7.37
2022-12-25T15:47:13.932Z,6.97
2022-12-25T15:49:41.428Z,5.77
2022-12-25T15:52:14.361Z,5.43
2022-12-25T15:54:41.153Z,4.30
2022-12-25T15:57:17.268Z,5.73
2022-12-25T15:59:43.972Z,6.70
2022-12-25T16:02:19.769Z,9.93
2022-12-25T16:04:46.882Z,5.20
2022-12-25T16:07:19.514Z,4.53
2022-12-25T16:09:46.424Z,4.73
2022-12-25T16:12:13.255Z,4.20
2022-12-25T16:14:39.889Z,4.13
2022-12-25T16:17:06.747Z,4.87
2022-12-25T16:19:33.509Z,4.00
2022-12-25T16:22:00.133Z,6.47
2022-12-25T16:24:26.759Z,5.77
2022-12-25T16:26:53.407Z,4.13
2022-12-25T16:29:20.058Z,5.30
2022-12-25T16:31:46.858Z,6.13
2022-12-25T16:34:13.648Z,8.53
2022-12-25T16:36:40.333Z,9.80
2022-12-25T16:39:06.984Z,7.90
2022-12-25T16:41:33.692Z,7.53
2022-12-25T16:44:09.008Z,8.03
2022-12-25T16:46:37.041Z,7.43
2022-12-25T16:49:04.270Z,6.70
2022-12-25T16:51:31.144Z,8.60
2022-12-25T16:53:57.788Z,6.93
2022-12-25T16:56:26.910Z,7.03
2022-12-25T16:58:54.347Z,7.47
2022-12-25T17:01:22.845Z,7.43
2022-12-25T17:03:50.247Z,9.27
2022-12-25T17:06:23.252Z,8.17
2022-12-25T17:08:52.305Z,7.93
2022-12-25T17:11:27.126Z,7.80
2022-12-25T17:13:54.326Z,8.13
2022-12-25T17:16:24.585Z,6.70
2022-12-25T17:18:56.313Z,7.83
2022-12-25T17:21:24.402Z,6.87
2022-12-25T17:23:51.026Z,7.23
2022-12-25T17:26:17.727Z,6.70
2022-12-25T17:28:44.537Z,7.73
2022-12-25T17:31:13.987Z,7.50
2022-12-25T17:33:43.386Z,6.73
2022-12-25T17:36:13.001Z,7.37
2022-12-25T17:38:39.765Z,6.83
2022-12-25T17:41:09.819Z,6.47
2022-12-25T17:43:45.330Z,8.97
2022-12-25T17:46:17.145Z,7.07
2022-12-25T17:48:43.971Z,8.57
2022-12-25T17:51:13.009Z,7.93
2022-12-25T17:53:42.102Z,9.97
2022-12-25T17:56:09.746Z,11.33
2022-12-25T17:58:37.740Z,9.37
2022-12-25T18:01:10.210Z,8.23
2022-12-25T18:03:37.264Z,12.43
2022-12-25T18:06:05.045Z,6.23
2022-12-25T18:08:38.654Z,5.37
2022-12-25T18:11:09.285Z,6.33
2022-12-25T18:13:37.017Z,5.47
2022-12-25T18:16:05.941Z,4.03
2022-12-25T18:18:33.760Z,4.10
2022-12-25T18:21:01.760Z,3.70
2022-12-25T18:23:28.802Z,3.70
2022-12-25T18:25:55.704Z,3.07
2022-12-25T18:28:23.267Z,3.00
2022-12-25T18:30:50.021Z,3.20
2022-12-25T18:33:16.757Z,2.93
2022-12-25T18:35:44.340Z,2.93
2022-12-25T18:38:11.573Z,3.70
2022-12-25T18:40:47.034Z,5.27
2022-12-25T18:43:14.537Z,4.00
2022-12-25T18:45:42.319Z,3.07
2022-12-25T18:48:10.232Z,3.20
2022-12-25T18:50:38.962Z,3.10
2022-12-25T18:53:06.464Z,3.60
2022-12-25T18:55:33.174Z,2.73
2022-12-25T18:57:59.900Z,4.57
2022-12-25T19:00:27.887Z,5.87
2022-12-25T19:02:58.945Z,4.40
2022-12-25T19:05:26.359Z,8.10
2022-12-25T19:07:53.095Z,12.93
2022-12-25T19:10:19.901Z,5.13
2022-12-25T19:12:46.660Z,4.40
2022-12-25T19:15:14.034Z,4.30
2022-12-25T19:17:40.737Z,3.47
2022-12-25T19:20:08.100Z,3.73
2022-12-25T19:22:34.779Z,2.70
2022-12-25T19:25:01.492Z,2.90
2022-12-25T19:27:28.122Z,2.73
2022-12-25T19:29:54.858Z,3.10
2022-12-25T19:32:21.507Z,2.90
2022-12-25T19:34:48.221Z,3.20
2022-12-25T19:37:15.163Z,3.43
2022-12-25T19:39:46.494Z,2.97
2022-12-25T19:42:18.692Z,2.50
2022-12-25T19:44:45.443Z,2.93
2022-12-25T19:47:12.086Z,2.80
2022-12-25T19:49:40.683Z,3.17
2022-12-25T19:52:08.061Z,2.93
2022-12-25T19:54:34.835Z,3.40
2022-12-25T19:57:01.514Z,3.83
2022-12-25T19:59:28.313Z,3.20
2022-12-25T20:01:55.511Z,3.27
2022-12-25T20:04:22.343Z,3.70
2022-12-25T20:06:48.997Z,3.57
2022-12-25T20:09:20.996Z,3.70
2022-12-25T20:11:48.622Z,3.87
2022-12-25T20:14:17.046Z,3.43
2022-12-25T20:16:44.328Z,2.80
2022-12-25T20:19:12.825Z,3.30
2022-12-25T20:21:40.002Z,3.57
2022-12-25T20:24:09.931Z,3.30
2022-12-25T20:26:37.887Z,3.37
2022-12-25T20:29:04.948Z,3.30
2022-12-25T20:31:33.944Z,10.50
2022-12-25T20:34:06.111Z,9.27
2022-12-25T20:36:37.268Z,5.70
2022-12-25T20:39:08.497Z,4.83
2022-12-25T20:41:35.182Z,4.40
2022-12-25T20:44:01.899Z,4.10
2022-12-25T20:46:28.780Z,4.03
2022-12-25T20:48:55.576Z,3.30
2022-12-25T20:51:24.745Z,3.70
2022-12-25T20:53:52.062Z,3.53
2022-12-25T20:56:20.892Z,3.73
2022-12-25T20:58:47.697Z,3.40
2022-12-25T21:01:17.328Z,3.10
2022-12-25T21:03:44.455Z,3.00
2022-12-25T21:06:12.671Z,3.10
2022-12-25T21:08:40.809Z,2.87
2022-12-25T21:11:08.451Z,3.07
2022-12-25T21:13:38.148Z,3.00
2022-12-25T21:16:06.460Z,3.00
2022-12-25T21:18:33.107Z,2.63
2022-12-25T21:21:04.614Z,2.97
2022-12-25T21:23:32.537Z,2.63
2022-12-25T21:25:59.472Z,2.93
2022-12-25T21:28:27.107Z,3.13
2022-12-25T21:30:53.843Z,2.50
2022-12-25T21:33:43.805Z,3.03
2022-12-25T21:36:11.374Z,3.00
2022-12-25T21:38:38.749Z,2.90
2022-12-25T21:41:07.691Z,3.30
2022-12-25T21:43:36.154Z,3.33
2022-12-25T21:46:08.723Z,3.10
2022-12-25T21:48:36.567Z,3.00
2022-12-25T21:51:23.485Z,3.03
2022-12-25T21:53:50.621Z,3.07
2022-12-25T21:56:18.025Z,3.10
2022-12-25T21:58:44.673Z,3.27
2022-12-25T22:01:11.771Z,3.20
2022-12-25T22:03:38.688Z,3.20
2022-12-25T22:06:26.167Z,3.20
2022-12-25T22:08:52.879Z,2.40
2022-12-25T22:11:38.197Z,2.80
2022-12-25T22:14:52.289Z,3.00
2022-12-25T22:17:29.108Z,3.00
2022-12-25T22:19:56.357Z,3.17
2022-12-25T22:22:25.583Z,3.33
2022-12-25T22:24:55.239Z,3.17
2022-12-25T22:27:22.794Z,3.70
2022-12-25T22:29:49.898Z,2.60
2022-12-25T22:32:17.012Z,2.93
2022-12-25T22:34:43.862Z,3.20
2022-12-25T22:37:15.902Z,3.33
2022-12-25T22:39:42.637Z,3.20
2022-12-25T22:42:09.354Z,3.80
2022-12-25T22:44:36.181Z,3.37
2022-12-25T22:47:02.919Z,3.27
2022-12-25T22:49:30.151Z,3.27
2022-12-25T22:51:57.173Z,3.33
2022-12-25T22:54:25.081Z,3.60
2022-12-25T22:56:56.441Z,3.10
2022-12-25T22:59:23.084Z,2.80
2022-12-25T23:01:50.584Z,3.37
2022-12-25T23:04:17.309Z,3.00
2022-12-25T23:06:44.207Z,2.90
2022-12-25T23:09:18.872Z,3.13
2022-12-25T23:11:48.945Z,3.37
2022-12-25T23:14:34.090Z,3.30
2022-12-25T23:17:00.777Z,2.93
2022-12-25T23:19:46.020Z,3.57
2022-12-25T23:22:32.018Z,2.50
2022-12-25T23:25:28.576Z,2.60
2022-12-25T23:27:55.242Z,2.50
2022-12-25T23:30:21.968Z,2.80
2022-12-25T23:32:48.642Z,3.10
2022-12-25T23:35:15.353Z,2.53
2022-12-25T23:37:42.052Z,2.40
2022-12-25T23:40:09.667Z,2.30
2022-12-25T23:42:36.366Z,2.70
2022-12-25T23:45:03.080Z,2.40
2022-12-25T23:47:29.766Z,2.63
2022-12-25T23:49:56.410Z,2.53
2022-12-25T23:52:23.081Z,2.17
2022-12-25T23:54:49.721Z,2.50
2022-12-25T23:57:16.422Z,2.60
2022-12-25T23:59:43.101Z,2.30
